Time;durP1;ratioP1;P1;durP2;ratioP2;P2;SDS_P1;SDS_P2;PMS_P1;PMS_P2;Temp;Humidity;BMP_temperature;BMP_pressure;BME280_temperature;BME280_humidity;BME280_pressure;Samples;Min_cycle;Max_cycle;Signal;HPM_P1;HPM_P2
2024/03/30 00:00:15;;;;;;;;;;;9.50;99.90;;;;;;21047781;28;19916;-78
2024/03/30 00:10:15;;;;;;;;;;;9.70;99.90;;;;;;21030181;28;19991;-77
2024/03/30 00:20:16;;;;;;;;;;;9.50;99.90;;;;;;21025511;28;19955;-77
2024/03/30 00:30:17;;;;;;;;;;;9.60;99.90;;;;;;21034249;28;19919;-77
2024/03/30 00:40:18;;;;;;;;;;;9.80;99.90;;;;;;21052703;28;19923;-77
2024/03/30 00:50:19;;;;;;;;;;;9.60;99.90;;;;;;21048160;28;19951;-76
2024/03/30 01:00:20;;;;;;;;;;;9.90;99.90;;;;;;21049159;28;19916;-77
2024/03/30 01:10:21;;;;;;;;;;;9.70;99.90;;;;;;21032042;28;20406;-77
2024/03/30 01:20:23;;;;;;;;;;;9.90;99.90;;;;;;21021128;28;19923;-77
2024/03/30 01:30:24;;;;;;;;;;;10.80;99.90;;;;;;21018685;28;19954;-77
2024/03/30 01:40:30;;;;;;;;;;;10.60;99.90;;;;;;21016838;28;20366;-75
2024/03/30 01:50:33;;;;;;;;;;;10.80;99.90;;;;;;21023918;28;19965;-77
2024/03/30 02:00:34;;;;;;;;;;;11.00;99.90;;;;;;21017280;28;20382;-76
2024/03/30 02:10:40;;;;;;;;;;;11.60;99.90;;;;;;21028674;28;19919;-76
2024/03/30 02:20:41;;;;;;;;;;;11.30;99.90;;;;;;21029308;28;19923;-76
2024/03/30 02:30:43;;;;;;;;;;;12.10;99.90;;;;;;21007293;28;19916;-77
2024/03/30 02:40:47;;;;;;;;;;;11.10;99.90;;;;;;21001405;28;19917;-77
2024/03/30 02:50:48;;;;;;;;;;;11.80;99.90;;;;;;21025248;28;19913;-77
2024/03/30 03:00:49;;;;;;;;;;;11.50;99.90;;;;;;21021331;28;19917;-75
2024/03/30 03:10:50;;;;;;;;;;;10.80;99.90;;;;;;21030710;28;19913;-76
2024/03/30 03:20:51;;;;;;;;;;;12.90;99.90;;;;;;21030205;28;20311;-76
2024/03/30 03:30:51;;;;;;;;;;;12.30;99.90;;;;;;21026265;28;19912;-76
2024/03/30 03:40:55;;;;;;;;;;;12.10;99.90;;;;;;21030366;28;19935;-77
2024/03/30 03:50:56;;;;;;;;;;;12.00;99.90;;;;;;21030255;28;19919;-76
2024/03/30 04:00:57;;;;;;;;;;;12.10;99.90;;;;;;21038919;28;20352;-77
2024/03/30 04:11:01;;;;;;;;;;;12.00;99.90;;;;;;21023219;28;19936;-77
2024/03/30 04:21:02;;;;;;;;;;;11.90;99.90;;;;;;21036989;28;19941;-77
2024/03/30 04:31:04;;;;;;;;;;;11.60;99.90;;;;;;21033167;28;19923;-76
2024/03/30 04:41:06;;;;;;;;;;;11.10;99.90;;;;;;21045270;28;19916;-76
2024/03/30 04:51:06;;;;;;;;;;;11.90;99.90;;;;;;21031673;28;20295;-77
2024/03/30 05:01:08;;;;;;;;;;;11.50;99.90;;;;;;21020351;28;20016;-76
2024/03/30 05:11:08;;;;;;;;;;;11.30;99.90;;;;;;21034745;28;19947;-76
2024/03/30 05:21:09;;;;;;;;;;;10.80;99.90;;;;;;21043672;28;20306;-76
2024/03/30 05:31:22;;;;;;;;;;;11.50;99.90;;;;;;21018776;28;20448;-77
2024/03/30 05:41:23;;;;;;;;;;;11.90;99.90;;;;;;21037556;28;19920;-75
2024/03/30 05:51:23;;;;;;;;;;;11.70;99.90;;;;;;21033411;28;20058;-76
2024/03/30 06:01:24;;;;;;;;;;;12.50;99.90;;;;;;21038131;28;19923;-77
2024/03/30 06:11:25;;;;;;;;;;;12.10;99.90;;;;;;21028959;28;20367;-76
2024/03/30 06:21:26;;;;;;;;;;;12.20;99.90;;;;;;21033452;28;19998;-78
2024/03/30 06:31:27;;;;;;;;;;;12.00;99.90;;;;;;21026446;28;19912;-78
2024/03/30 06:51:47;;;;;;;;;;;12.10;99.90;;;;;;21029444;28;19957;-77
2024/03/30 07:01:47;;;;;;;;;;;12.20;99.90;;;;;;21025481;28;20317;-77
2024/03/30 07:11:48;;;;;;;;;;;12.50;99.90;;;;;;21017342;28;19954;-76
2024/03/30 07:21:49;;;;;;;;;;;12.50;99.90;;;;;;21026270;28;20688;-77
2024/03/30 07:31:50;;;;;;;;;;;12.70;99.90;;;;;;21037480;28;19963;-76
2024/03/30 07:41:50;;;;;;;;;;;13.00;99.90;;;;;;21053777;28;19923;-75
2024/03/30 07:51:51;;;;;;;;;;;12.90;99.90;;;;;;21052657;28;19923;-77
2024/03/30 08:01:52;;;;;;;;;;;13.10;99.90;;;;;;21031177;28;19916;-77
2024/03/30 08:11:54;;;;;;;;;;;13.30;99.90;;;;;;21035420;28;19938;-77
2024/03/30 08:21:55;;;;;;;;;;;13.70;99.90;;;;;;21022546;28;19917;-77
2024/03/30 08:31:55;;;;;;;;;;;14.50;99.90;;;;;;21021987;28;19966;-77
2024/03/30 08:41:56;;;;;;;;;;;14.90;99.90;;;;;;21035169;28;20153;-77
2024/03/30 08:51:57;;;;;;;;;;;14.90;99.90;;;;;;21013615;28;19934;-76
2024/03/30 09:01:57;;;;;;;;;;;14.80;99.90;;;;;;21019769;28;19916;-76
2024/03/30 09:11:58;;;;;;;;;;;14.70;99.90;;;;;;21033503;28;19912;-76
2024/03/30 09:21:59;;;;;;;;;;;14.80;99.90;;;;;;21026512;28;19916;-75
2024/03/30 09:31:59;;;;;;;;;;;15.00;99.90;;;;;;21023974;28;19919;-76
2024/03/30 09:42:00;;;;;;;;;;;15.20;99.90;;;;;;21027748;28;20402;-77
2024/03/30 09:52:02;;;;;;;;;;;15.20;99.90;;;;;;21023628;28;19912;-75
2024/03/30 10:02:02;;;;;;;;;;;15.30;99.90;;;;;;21013658;28;19920;-76
2024/03/30 10:12:07;;;;;;;;;;;15.30;99.90;;;;;;21029728;28;19916;-76
2024/03/30 10:22:08;;;;;;;;;;;15.30;99.90;;;;;;21005249;28;20541;-77
2024/03/30 10:32:10;;;;;;;;;;;15.50;99.90;;;;;;21025677;28;20215;-76
2024/03/30 10:42:12;;;;;;;;;;;15.50;99.90;;;;;;21016204;28;19951;-76
2024/03/30 10:52:13;;;;;;;;;;;15.20;99.90;;;;;;21027765;28;19912;-76
2024/03/30 11:02:17;;;;;;;;;;;15.40;99.90;;;;;;21028945;28;19927;-76
2024/03/30 11:12:18;;;;;;;;;;;15.30;99.90;;;;;;21045995;28;19919;-75
2024/03/30 11:22:50;;;;;;;;;;;15.20;99.90;;;;;;21048498;28;19999;-77
2024/03/30 11:32:55;;;;;;;;;;;15.50;99.90;;;;;;21042890;28;19918;-77
2024/03/30 11:43:07;;;;;;;;;;;15.60;99.90;;;;;;21031086;28;19962;-76
2024/03/30 11:53:15;;;;;;;;;;;15.50;99.90;;;;;;21024536;28;20363;-76
2024/03/30 12:03:16;;;;;;;;;;;15.10;99.90;;;;;;21028619;28;19917;-76
2024/03/30 12:13:19;;;;;;;;;;;15.40;99.90;;;;;;21034987;28;19956;-77
2024/03/30 12:23:22;;;;;;;;;;;16.00;99.90;;;;;;21024519;28;19916;-78
2024/03/30 12:33:23;;;;;;;;;;;15.70;99.90;;;;;;21042102;28;19912;-77
2024/03/30 12:43:24;;;;;;;;;;;15.90;99.90;;;;;;21038437;28;19971;-77
2024/03/30 12:53:24;;;;;;;;;;;16.30;99.90;;;;;;21009870;28;19916;-78
2024/03/30 13:03:25;;;;;;;;;;;16.20;99.90;;;;;;21011830;28;20007;-77
2024/03/30 13:13:26;;;;;;;;;;;16.10;99.90;;;;;;21020785;28;19952;-76
2024/03/30 13:23:28;;;;;;;;;;;16.10;99.90;;;;;;21024856;28;20008;-77
2024/03/30 13:33:31;;;;;;;;;;;15.90;99.90;;;;;;21014937;28;19951;-78
2024/03/30 13:43:31;;;;;;;;;;;15.80;99.90;;;;;;21013790;28;19917;-77
2024/03/30 13:53:32;;;;;;;;;;;16.20;99.90;;;;;;21025613;28;19962;-77
2024/03/30 14:03:33;;;;;;;;;;;16.30;99.90;;;;;;21010928;28;20346;-76
2024/03/30 14:13:34;;;;;;;;;;;15.70;99.90;;;;;;21005693;28;19955;-77
2024/03/30 14:23:34;;;;;;;;;;;15.90;99.90;;;;;;21010325;28;20357;-75
2024/03/30 14:33:35;;;;;;;;;;;17.10;99.90;;;;;;21044825;28;21351;-77
2024/03/30 14:43:37;;;;;;;;;;;17.40;99.90;;;;;;21029716;28;20029;-75
2024/03/30 14:53:38;;;;;;;;;;;16.50;99.90;;;;;;21033177;28;19913;-75
2024/03/30 15:03:42;;;;;;;;;;;16.70;99.90;;;;;;21034539;28;19922;-75
2024/03/30 15:13:43;;;;;;;;;;;16.60;99.90;;;;;;21040460;28;19924;-76
2024/03/30 15:23:46;;;;;;;;;;;15.40;99.90;;;;;;21024328;28;19920;-76
2024/03/30 15:33:46;;;;;;;;;;;15.10;99.90;;;;;;21027452;28;19912;-75
2024/03/30 15:43:47;;;;;;;;;;;14.80;99.90;;;;;;21038873;28;19924;-76
2024/03/30 15:53:49;;;;;;;;;;;14.70;99.90;;;;;;21054313;28;20514;-75
2024/03/30 16:03:50;;;;;;;;;;;14.60;99.90;;;;;;21058419;28;19916;-75
2024/03/30 16:13:51;;;;;;;;;;;14.10;99.90;;;;;;21056643;28;19923;-75
2024/03/30 16:23:51;;;;;;;;;;;13.90;99.90;;;;;;21047679;28;19916;-75
2024/03/30 16:33:52;;;;;;;;;;;13.70;99.90;;;;;;21055293;28;20557;-75
2024/03/30 16:43:53;;;;;;;;;;;13.50;99.90;;;;;;21054591;28;19970;-75
2024/03/30 16:53:53;;;;;;;;;;;13.30;99.90;;;;;;21052152;28;19919;-75
2024/03/30 17:03:54;;;;;;;;;;;13.00;99.90;;;;;;21049879;28;20421;-75
2024/03/30 17:13:55;;;;;;;;;;;12.90;99.90;;;;;;21022729;28;20383;-76
2024/03/30 17:23:55;;;;;;;;;;;12.70;99.90;;;;;;21044233;28;20006;-76
2024/03/30 17:33:56;;;;;;;;;;;12.40;99.90;;;;;;21013119;28;19927;-76
2024/03/30 17:43:57;;;;;;;;;;;12.30;99.90;;;;;;21023420;28;19977;-73
2024/03/30 17:53:57;;;;;;;;;;;12.10;99.90;;;;;;21047882;28;19965;-75
2024/03/30 18:03:58;;;;;;;;;;;11.80;99.90;;;;;;21045487;28;19916;-76
2024/03/30 18:14:00;;;;;;;;;;;11.60;99.90;;;;;;21044676;28;19916;-76
2024/03/30 18:24:01;;;;;;;;;;;11.40;99.90;;;;;;21045490;28;19950;-75
2024/03/30 18:34:01;;;;;;;;;;;11.30;99.90;;;;;;21049628;28;20374;-73
2024/03/30 18:44:02;;;;;;;;;;;11.20;99.90;;;;;;21047689;28;19916;-73
2024/03/30 18:54:03;;;;;;;;;;;11.00;99.90;;;;;;21045412;28;19998;-73
2024/03/30 19:04:03;;;;;;;;;;;11.00;99.90;;;;;;21046459;28;20526;-74
2024/03/30 19:14:05;;;;;;;;;;;10.90;99.90;;;;;;21045546;28;20032;-74
2024/03/30 19:24:05;;;;;;;;;;;10.90;99.90;;;;;;21052900;28;19920;-74
2024/03/30 19:34:07;;;;;;;;;;;10.80;99.90;;;;;;21061983;28;20359;-74
2024/03/30 19:44:08;;;;;;;;;;;10.60;99.90;;;;;;21061665;28;19923;-75
2024/03/30 19:54:09;;;;;;;;;;;10.50;99.90;;;;;;21056928;28;20374;-73
2024/03/30 20:04:10;;;;;;;;;;;10.40;99.90;;;;;;21058052;28;19916;-73
2024/03/30 20:14:10;;;;;;;;;;;10.30;99.90;;;;;;21058598;28;19923;-74
2024/03/30 20:24:11;;;;;;;;;;;10.30;99.90;;;;;;21063635;28;19923;-75
2024/03/30 20:34:11;;;;;;;;;;;10.40;99.90;;;;;;21057807;28;19916;-76
2024/03/30 20:44:12;;;;;;;;;;;10.30;99.90;;;;;;21058879;28;20313;-76
2024/03/30 20:54:13;;;;;;;;;;;10.20;99.90;;;;;;21056837;28;19999;-76
2024/03/30 21:04:13;;;;;;;;;;;10.10;99.90;;;;;;21056761;28;19984;-76
2024/03/30 21:14:14;;;;;;;;;;;10.00;99.90;;;;;;21054970;28;20371;-76
2024/03/30 21:24:15;;;;;;;;;;;9.80;99.90;;;;;;21053803;28;19916;-75
2024/03/30 21:34:15;;;;;;;;;;;9.60;99.90;;;;;;21053856;28;19952;-76
2024/03/30 21:44:16;;;;;;;;;;;9.80;99.90;;;;;;21052242;28;19916;-76
2024/03/30 21:54:17;;;;;;;;;;;9.60;99.90;;;;;;21049690;28;19913;-74
2024/03/30 22:04:17;;;;;;;;;;;9.60;99.90;;;;;;21049984;28;19950;-76
2024/03/30 22:14:18;;;;;;;;;;;9.40;99.90;;;;;;21050352;28;20006;-74
2024/03/30 22:24:21;;;;;;;;;;;9.20;99.90;;;;;;21024177;28;19920;-75
2024/03/30 22:34:21;;;;;;;;;;;9.40;99.90;;;;;;21019445;28;19959;-74
2024/03/30 22:44:22;;;;;;;;;;;9.50;99.90;;;;;;21019096;28;20070;-75
2024/03/30 22:54:23;;;;;;;;;;;9.30;99.90;;;;;;21018925;28;20379;-74
2024/03/30 23:04:23;;;;;;;;;;;8.90;99.90;;;;;;21027701;28;19916;-75
2024/03/30 23:14:25;;;;;;;;;;;8.70;99.90;;;;;;21034956;28;20302;-75
2024/03/30 23:24:26;;;;;;;;;;;8.90;99.90;;;;;;21035518;28;19917;-74
2024/03/30 23:34:26;;;;;;;;;;;8.90;99.90;;;;;;21026380;28;19920;-75
2024/03/30 23:44:27;;;;;;;;;;;8.70;99.90;;;;;;21032754;28;20010;-75
2024/03/30 23:54:28;;;;;;;;;;;8.60;99.90;;;;;;21032503;28;19920;-76
